Riverton Regional Airport
KRIW : now visible

Airfield :











YOU CAN JOIN US ON...

 
LOGIN :

Register | Disclaimer

   EN    FR    IT 

 









Legend :    VFR   Marginal VFR   IFR   Intensive IFR   Very Intensive IFR
Visi :
Ceiling :
>= 8 km
>= 3000ft
5 to 8 km
1000 to 3000 ft
1500m to 5 km
500 to 1000 ft
800 to 1500m
200 to 500 ft
< 800m
< 200 ft
Symbols :   Thunderstorms  Fog  Heavy snow  Heavy precipitations  Wind > 20 kt







- Airport Elevation : 5525 ft


KRIW - Riverton Regional

CURRENT METAR :
  • 221753Z AUTO 02014G21KT 10SM -RA BKN016 BKN034 OVC045 04/01 A2987 RMK AO2 SLP120 P0000 60002 T00440011 10044 20000 53014

EXPIRED METARs :
  • 221653Z AUTO 35011KT 7SM -RA BKN016 BKN023 OVC030 03/01 A2985 RMK AO2 RAB17 SLP116 P0000 T00280006
  • 221553Z AUTO 36012KT 10SM FEW009 BKN020 OVC038 03/01 A2983 RMK AO2 UPB1456E13RAB22E50SNB13E22 SLP106 P0000 T00330011

TAF KRIW
Valid from the 22 at 18:00 until the 23 at 18:00 UTC


221725Z 2218/2318 01013KT P6SM VCSH SCT012 BKN023
TEMPO 2218/2221 P6SM -RA SCT009 BKN015
FM230100 04012KT P6SM VCSH BKN025
FM230500 06010KT P6SM VCSH SCT030 BKN050
FM231600 04013KT P6SM -SNRA SCT012 BKN020
KZLC FIR / North America



MET'MAP, your aeronautical weather chart ! - Copyright ORBIFLY December 2007 - Disclaimer

ORBIFLY MET'MAP TEAM :

Programming & Development : Alexandra Zaïnal
Concept & Development : Baudouin d'Aumeries
Co-Development & Prog : Marc-Olivier Méhu
Technical & hardware support : Manuel Goepfert

Contact : metmap@orbifly.com




SOURCES & CREDITS :

   NOAA       Earth
Advisory